East Islip, New York
Current Conditions -  °F | °C
As of 9:56 PM on Saturday 25 Oct 2014 (Local Time) from KISP Reporting Station
Scattered Clouds Scattered Clouds  
Wind Chill: 16°   Ceiling: Unl
Heat Index: 16°   Visibility: 10mi
Dew Point: 10°   Wind: 13mph
Humidity: 69%   Direction: 220°SW
Pressure: 29.59"   Gusts: 23mph
Location:  40.73°N, 73.19°W
Report Text: KISP 260156Z 22011G20KT 10SM SCT260 16/10 A2959 RMK AO2 SLP021 T01560100
Loading
Personal Weather Stations






























Interactive Weather Map
Tropical Storm Tracking
New forecast layout! Learn more

10-Day Weather Forecast

Advertisements
Track Severe Weather on mobile